sensor_id;sensor_type;location;lat;lon;timestamp;P1;durP1;ratioP1;P2;durP2;ratioP2
3259;SDS011;22469;48.150;14.004;2023-03-15T00:01:11;2.33;;;1.60;;
3259;SDS011;22469;48.150;14.004;2023-03-15T00:03:42;2.07;;;1.60;;
3259;SDS011;22469;48.150;14.004;2023-03-15T00:06:10;1.77;;;1.67;;
3259;SDS011;22469;48.150;14.004;2023-03-15T00:08:38;1.93;;;1.67;;
3259;SDS011;22469;48.150;14.004;2023-03-15T00:11:06;2.40;;;1.33;;
3259;SDS011;22469;48.150;14.004;2023-03-15T00:13:33;1.37;;;1.30;;
3259;SDS011;22469;48.150;14.004;2023-03-15T00:16:00;2.73;;;2.10;;
3259;SDS011;22469;48.150;14.004;2023-03-15T00:18:29;1.33;;;1.33;;
3259;SDS011;22469;48.150;14.004;2023-03-15T00:20:57;1.77;;;1.20;;
3259;SDS011;22469;48.150;14.004;2023-03-15T00:23:24;1.50;;;1.40;;
3259;SDS011;22469;48.150;14.004;2023-03-15T00:25:52;1.33;;;1.30;;
3259;SDS011;22469;48.150;14.004;2023-03-15T00:28:19;1.97;;;1.57;;
3259;SDS011;22469;48.150;14.004;2023-03-15T00:30:47;2.13;;;1.70;;
3259;SDS011;22469;48.150;14.004;2023-03-15T00:33:14;1.43;;;1.33;;
3259;SDS011;22469;48.150;14.004;2023-03-15T00:35:43;1.80;;;1.70;;
3259;SDS011;22469;48.150;14.004;2023-03-15T00:38:11;1.80;;;1.43;;
3259;SDS011;22469;48.150;14.004;2023-03-15T00:40:39;3.03;;;1.60;;
3259;SDS011;22469;48.150;14.004;2023-03-15T00:43:06;1.53;;;1.53;;
3259;SDS011;22469;48.150;14.004;2023-03-15T00:45:33;3.27;;;1.80;;
3259;SDS011;22469;48.150;14.004;2023-03-15T00:48:01;1.97;;;1.87;;
3259;SDS011;22469;48.150;14.004;2023-03-15T00:50:27;1.80;;;1.70;;
3259;SDS011;22469;48.150;14.004;2023-03-15T00:52:54;1.43;;;1.23;;
3259;SDS011;22469;48.150;14.004;2023-03-15T00:55:21;2.20;;;1.47;;
3259;SDS011;22469;48.150;14.004;2023-03-15T00:57:50;1.60;;;1.50;;
3259;SDS011;22469;48.150;14.004;2023-03-15T01:00:21;1.90;;;1.37;;
3259;SDS011;22469;48.150;14.004;2023-03-15T01:02:51;2.43;;;2.20;;
3259;SDS011;22469;48.150;14.004;2023-03-15T01:05:20;1.57;;;1.57;;
3259;SDS011;22469;48.150;14.004;2023-03-15T01:07:48;1.40;;;1.30;;
3259;SDS011;22469;48.150;14.004;2023-03-15T01:10:15;2.77;;;1.20;;
3259;SDS011;22469;48.150;14.004;2023-03-15T01:12:43;1.87;;;1.77;;
3259;SDS011;22469;48.150;14.004;2023-03-15T01:15:12;1.20;;;1.10;;
3259;SDS011;22469;48.150;14.004;2023-03-15T01:17:41;2.00;;;1.40;;
3259;SDS011;22469;48.150;14.004;2023-03-15T01:20:09;1.60;;;1.50;;
3259;SDS011;22469;48.150;14.004;2023-03-15T01:22:39;2.47;;;1.73;;
3259;SDS011;22469;48.150;14.004;2023-03-15T01:25:07;2.67;;;1.87;;
3259;SDS011;22469;48.150;14.004;2023-03-15T01:27:35;1.60;;;1.40;;
3259;SDS011;22469;48.150;14.004;2023-03-15T01:30:02;1.73;;;1.63;;
3259;SDS011;22469;48.150;14.004;2023-03-15T01:32:30;2.57;;;1.70;;
3259;SDS011;22469;48.150;14.004;2023-03-15T01:34:58;1.87;;;1.77;;
3259;SDS011;22469;48.150;14.004;2023-03-15T01:37:25;1.60;;;1.50;;
3259;SDS011;22469;48.150;14.004;2023-03-15T01:39:52;1.73;;;1.63;;
3259;SDS011;22469;48.150;14.004;2023-03-15T01:42:21;1.83;;;1.73;;
3259;SDS011;22469;48.150;14.004;2023-03-15T01:44:55;1.60;;;1.60;;
3259;SDS011;22469;48.150;14.004;2023-03-15T01:47:28;2.27;;;1.73;;
3259;SDS011;22469;48.150;14.004;2023-03-15T01:50:03;2.17;;;1.80;;
3259;SDS011;22469;48.150;14.004;2023-03-15T01:52:36;1.93;;;1.80;;
3259;SDS011;22469;48.150;14.004;2023-03-15T01:57:43;2.30;;;2.10;;
3259;SDS011;22469;48.150;14.004;2023-03-15T02:00:16;1.80;;;1.63;;
3259;SDS011;22469;48.150;14.004;2023-03-15T02:02:56;2.20;;;2.00;;
3259;SDS011;22469;48.150;14.004;2023-03-15T02:05:34;2.37;;;2.27;;
3259;SDS011;22469;48.150;14.004;2023-03-15T02:08:11;1.90;;;1.80;;
3259;SDS011;22469;48.150;14.004;2023-03-15T02:10:43;3.00;;;1.83;;
3259;SDS011;22469;48.150;14.004;2023-03-15T02:13:16;2.73;;;1.90;;
3259;SDS011;22469;48.150;14.004;2023-03-15T02:15:48;4.53;;;1.80;;
3259;SDS011;22469;48.150;14.004;2023-03-15T02:18:19;1.90;;;1.80;;
3259;SDS011;22469;48.150;14.004;2023-03-15T02:20:57;1.67;;;1.57;;
3259;SDS011;22469;48.150;14.004;2023-03-15T02:23:33;1.63;;;1.53;;
3259;SDS011;22469;48.150;14.004;2023-03-15T02:28:58;3.50;;;2.23;;
3259;SDS011;22469;48.150;14.004;2023-03-15T02:31:26;2.03;;;1.93;;
3259;SDS011;22469;48.150;14.004;2023-03-15T02:33:55;1.77;;;1.67;;
3259;SDS011;22469;48.150;14.004;2023-03-15T02:36:23;2.80;;;2.40;;
3259;SDS011;22469;48.150;14.004;2023-03-15T02:38:55;2.07;;;1.97;;
3259;SDS011;22469;48.150;14.004;2023-03-15T02:41:27;2.27;;;2.17;;
3259;SDS011;22469;48.150;14.004;2023-03-15T02:44:13;2.27;;;2.17;;
3259;SDS011;22469;48.150;14.004;2023-03-15T02:46:49;3.23;;;2.17;;
3259;SDS011;22469;48.150;14.004;2023-03-15T02:49:20;5.33;;;2.20;;
3259;SDS011;22469;48.150;14.004;2023-03-15T02:51:52;2.33;;;1.80;;
3259;SDS011;22469;48.150;14.004;2023-03-15T02:54:19;2.10;;;1.97;;
3259;SDS011;22469;48.150;14.004;2023-03-15T02:56:46;2.83;;;2.73;;
3259;SDS011;22469;48.150;14.004;2023-03-15T02:59:13;2.27;;;2.03;;
3259;SDS011;22469;48.150;14.004;2023-03-15T03:01:40;2.87;;;1.90;;
3259;SDS011;22469;48.150;14.004;2023-03-15T03:04:07;2.00;;;1.90;;
3259;SDS011;22469;48.150;14.004;2023-03-15T03:06:35;2.23;;;1.83;;
3259;SDS011;22469;48.150;14.004;2023-03-15T03:09:02;1.50;;;1.40;;
3259;SDS011;22469;48.150;14.004;2023-03-15T03:11:29;1.90;;;1.80;;
3259;SDS011;22469;48.150;14.004;2023-03-15T03:13:56;2.13;;;1.93;;
3259;SDS011;22469;48.150;14.004;2023-03-15T03:16:23;3.73;;;1.93;;
3259;SDS011;22469;48.150;14.004;2023-03-15T03:18:50;1.90;;;1.80;;
3259;SDS011;22469;48.150;14.004;2023-03-15T03:21:17;5.63;;;2.07;;
3259;SDS011;22469;48.150;14.004;2023-03-15T03:23:45;2.80;;;2.10;;
3259;SDS011;22469;48.150;14.004;2023-03-15T03:26:13;2.40;;;1.50;;
3259;SDS011;22469;48.150;14.004;2023-03-15T03:28:46;2.67;;;1.93;;
3259;SDS011;22469;48.150;14.004;2023-03-15T03:31:18;1.80;;;1.70;;
3259;SDS011;22469;48.150;14.004;2023-03-15T03:33:54;3.53;;;2.03;;
3259;SDS011;22469;48.150;14.004;2023-03-15T03:36:21;3.03;;;1.50;;
3259;SDS011;22469;48.150;14.004;2023-03-15T03:38:50;3.20;;;1.50;;
3259;SDS011;22469;48.150;14.004;2023-03-15T03:41:19;2.10;;;2.00;;
3259;SDS011;22469;48.150;14.004;2023-03-15T03:43:46;2.70;;;1.80;;
3259;SDS011;22469;48.150;14.004;2023-03-15T03:46:14;1.90;;;1.80;;
3259;SDS011;22469;48.150;14.004;2023-03-15T03:48:41;3.83;;;2.47;;
3259;SDS011;22469;48.150;14.004;2023-03-15T03:51:08;3.17;;;2.53;;
3259;SDS011;22469;48.150;14.004;2023-03-15T03:53:36;3.67;;;1.90;;
3259;SDS011;22469;48.150;14.004;2023-03-15T03:56:04;2.57;;;2.37;;
3259;SDS011;22469;48.150;14.004;2023-03-15T03:58:32;1.80;;;1.70;;
3259;SDS011;22469;48.150;14.004;2023-03-15T04:01:00;3.10;;;2.30;;
3259;SDS011;22469;48.150;14.004;2023-03-15T04:03:27;3.07;;;1.60;;
3259;SDS011;22469;48.150;14.004;2023-03-15T04:05:54;3.33;;;2.27;;
3259;SDS011;22469;48.150;14.004;2023-03-15T04:08:23;2.03;;;1.93;;
3259;SDS011;22469;48.150;14.004;2023-03-15T04:10:52;1.77;;;1.67;;
3259;SDS011;22469;48.150;14.004;2023-03-15T04:13:22;2.27;;;1.97;;
3259;SDS011;22469;48.150;14.004;2023-03-15T04:15:51;2.00;;;1.90;;
3259;SDS011;22469;48.150;14.004;2023-03-15T04:18:23;2.83;;;1.93;;
3259;SDS011;22469;48.150;14.004;2023-03-15T04:20:50;3.13;;;1.80;;
3259;SDS011;22469;48.150;14.004;2023-03-15T04:23:21;2.03;;;1.93;;
3259;SDS011;22469;48.150;14.004;2023-03-15T04:25:49;1.57;;;1.40;;
3259;SDS011;22469;48.150;14.004;2023-03-15T04:28:20;2.23;;;2.00;;
3259;SDS011;22469;48.150;14.004;2023-03-15T04:30:48;3.90;;;2.43;;
3259;SDS011;22469;48.150;14.004;2023-03-15T04:33:16;3.63;;;2.93;;
3259;SDS011;22469;48.150;14.004;2023-03-15T04:35:43;4.63;;;4.33;;
3259;SDS011;22469;48.150;14.004;2023-03-15T04:38:10;4.30;;;4.10;;
3259;SDS011;22469;48.150;14.004;2023-03-15T04:40:38;4.60;;;4.20;;
3259;SDS011;22469;48.150;14.004;2023-03-15T04:43:05;4.00;;;3.80;;
3259;SDS011;22469;48.150;14.004;2023-03-15T04:45:32;3.57;;;3.47;;
3259;SDS011;22469;48.150;14.004;2023-03-15T04:48:00;4.27;;;4.07;;
3259;SDS011;22469;48.150;14.004;2023-03-15T04:50:28;3.77;;;3.57;;
3259;SDS011;22469;48.150;14.004;2023-03-15T04:52:56;4.23;;;4.03;;
3259;SDS011;22469;48.150;14.004;2023-03-15T04:55:25;4.17;;;3.97;;
3259;SDS011;22469;48.150;14.004;2023-03-15T04:57:52;3.97;;;3.87;;
3259;SDS011;22469;48.150;14.004;2023-03-15T05:00:20;4.53;;;4.23;;
3259;SDS011;22469;48.150;14.004;2023-03-15T05:02:47;3.17;;;3.07;;
3259;SDS011;22469;48.150;14.004;2023-03-15T05:05:21;4.13;;;3.93;;
3259;SDS011;22469;48.150;14.004;2023-03-15T05:07:49;2.63;;;2.43;;
3259;SDS011;22469;48.150;14.004;2023-03-15T05:10:17;4.30;;;3.80;;
3259;SDS011;22469;48.150;14.004;2023-03-15T05:12:45;5.53;;;4.80;;
3259;SDS011;22469;48.150;14.004;2023-03-15T05:15:12;5.03;;;4.63;;
3259;SDS011;22469;48.150;14.004;2023-03-15T05:17:39;5.47;;;4.97;;
3259;SDS011;22469;48.150;14.004;2023-03-15T05:20:06;5.30;;;4.77;;
3259;SDS011;22469;48.150;14.004;2023-03-15T05:22:38;4.07;;;3.77;;
3259;SDS011;22469;48.150;14.004;2023-03-15T05:25:06;5.20;;;4.90;;
3259;SDS011;22469;48.150;14.004;2023-03-15T05:27:36;4.50;;;4.20;;
3259;SDS011;22469;48.150;14.004;2023-03-15T05:30:04;5.23;;;4.90;;
3259;SDS011;22469;48.150;14.004;2023-03-15T05:32:33;5.13;;;4.83;;
3259;SDS011;22469;48.150;14.004;2023-03-15T05:35:00;5.17;;;4.77;;
3259;SDS011;22469;48.150;14.004;2023-03-15T05:37:29;4.30;;;4.00;;
3259;SDS011;22469;48.150;14.004;2023-03-15T05:39:58;5.10;;;4.73;;
3259;SDS011;22469;48.150;14.004;2023-03-15T05:42:26;4.30;;;4.00;;
3259;SDS011;22469;48.150;14.004;2023-03-15T05:44:55;4.10;;;3.90;;
3259;SDS011;22469;48.150;14.004;2023-03-15T05:47:22;4.43;;;4.17;;
3259;SDS011;22469;48.150;14.004;2023-03-15T05:49:49;4.10;;;3.90;;
3259;SDS011;22469;48.150;14.004;2023-03-15T05:52:17;3.50;;;3.30;;
3259;SDS011;22469;48.150;14.004;2023-03-15T05:54:45;3.17;;;3.00;;
3259;SDS011;22469;48.150;14.004;2023-03-15T05:57:12;4.00;;;3.70;;
3259;SDS011;22469;48.150;14.004;2023-03-15T05:59:39;2.90;;;2.80;;
3259;SDS011;22469;48.150;14.004;2023-03-15T06:02:06;2.57;;;2.47;;
3259;SDS011;22469;48.150;14.004;2023-03-15T06:04:33;2.37;;;2.27;;
3259;SDS011;22469;48.150;14.004;2023-03-15T06:07:02;3.43;;;3.23;;
3259;SDS011;22469;48.150;14.004;2023-03-15T06:09:30;2.80;;;2.60;;
3259;SDS011;22469;48.150;14.004;2023-03-15T06:11:57;3.87;;;3.67;;
3259;SDS011;22469;48.150;14.004;2023-03-15T06:14:25;3.50;;;3.30;;
3259;SDS011;22469;48.150;14.004;2023-03-15T06:16:53;3.23;;;3.13;;
3259;SDS011;22469;48.150;14.004;2023-03-15T06:19:20;3.00;;;2.90;;
3259;SDS011;22469;48.150;14.004;2023-03-15T06:21:48;4.80;;;3.70;;
3259;SDS011;22469;48.150;14.004;2023-03-15T06:24:16;4.33;;;4.00;;
3259;SDS011;22469;48.150;14.004;2023-03-15T06:26:43;3.37;;;3.20;;
3259;SDS011;22469;48.150;14.004;2023-03-15T06:29:10;2.60;;;2.40;;
3259;SDS011;22469;48.150;14.004;2023-03-15T06:31:37;3.00;;;2.80;;
3259;SDS011;22469;48.150;14.004;2023-03-15T06:34:04;2.80;;;2.70;;
3259;SDS011;22469;48.150;14.004;2023-03-15T06:36:31;2.33;;;2.23;;
3259;SDS011;22469;48.150;14.004;2023-03-15T06:38:58;2.13;;;1.93;;
3259;SDS011;22469;48.150;14.004;2023-03-15T06:41:25;1.93;;;1.83;;
3259;SDS011;22469;48.150;14.004;2023-03-15T06:43:53;2.20;;;2.10;;
3259;SDS011;22469;48.150;14.004;2023-03-15T06:46:20;1.67;;;1.60;;
3259;SDS011;22469;48.150;14.004;2023-03-15T06:48:47;10.43;;;6.80;;
3259;SDS011;22469;48.150;14.004;2023-03-15T06:51:14;3.00;;;2.80;;
3259;SDS011;22469;48.150;14.004;2023-03-15T06:53:41;2.97;;;2.77;;
3259;SDS011;22469;48.150;14.004;2023-03-15T06:56:08;2.70;;;2.60;;
3259;SDS011;22469;48.150;14.004;2023-03-15T06:58:35;3.63;;;3.43;;
3259;SDS011;22469;48.150;14.004;2023-03-15T07:01:02;3.00;;;2.80;;
3259;SDS011;22469;48.150;14.004;2023-03-15T07:03:29;1.83;;;1.77;;
3259;SDS011;22469;48.150;14.004;2023-03-15T07:05:56;2.60;;;2.40;;
3259;SDS011;22469;48.150;14.004;2023-03-15T07:08:24;2.07;;;1.97;;
3259;SDS011;22469;48.150;14.004;2023-03-15T07:10:51;5.00;;;3.00;;
3259;SDS011;22469;48.150;14.004;2023-03-15T07:13:18;3.40;;;3.20;;
3259;SDS011;22469;48.150;14.004;2023-03-15T07:15:49;4.50;;;2.70;;
3259;SDS011;22469;48.150;14.004;2023-03-15T07:18:18;3.23;;;2.70;;
3259;SDS011;22469;48.150;14.004;2023-03-15T07:20:46;3.10;;;2.80;;
3259;SDS011;22469;48.150;14.004;2023-03-15T07:23:13;2.73;;;2.30;;
3259;SDS011;22469;48.150;14.004;2023-03-15T07:25:40;4.77;;;2.83;;
3259;SDS011;22469;48.150;14.004;2023-03-15T07:28:20;4.30;;;3.03;;
3259;SDS011;22469;48.150;14.004;2023-03-15T07:30:56;3.33;;;2.80;;
3259;SDS011;22469;48.150;14.004;2023-03-15T07:33:29;3.33;;;3.03;;
3259;SDS011;22469;48.150;14.004;2023-03-15T07:35:59;5.83;;;3.53;;
3259;SDS011;22469;48.150;14.004;2023-03-15T07:38:30;3.63;;;2.90;;
3259;SDS011;22469;48.150;14.004;2023-03-15T07:41:00;3.13;;;2.57;;
3259;SDS011;22469;48.150;14.004;2023-03-15T07:43:28;5.23;;;4.83;;
3259;SDS011;22469;48.150;14.004;2023-03-15T07:45:56;6.13;;;4.70;;
3259;SDS011;22469;48.150;14.004;2023-03-15T07:48:23;4.70;;;4.37;;
3259;SDS011;22469;48.150;14.004;2023-03-15T07:50:50;3.50;;;3.30;;
3259;SDS011;22469;48.150;14.004;2023-03-15T07:53:19;3.10;;;2.80;;
3259;SDS011;22469;48.150;14.004;2023-03-15T07:55:56;6.67;;;3.30;;
3259;SDS011;22469;48.150;14.004;2023-03-15T07:58:23;3.53;;;3.03;;
3259;SDS011;22469;48.150;14.004;2023-03-15T08:00:52;9.13;;;5.03;;
3259;SDS011;22469;48.150;14.004;2023-03-15T08:03:22;4.53;;;4.13;;
3259;SDS011;22469;48.150;14.004;2023-03-15T08:05:52;9.43;;;5.07;;
3259;SDS011;22469;48.150;14.004;2023-03-15T08:08:19;6.40;;;3.93;;
3259;SDS011;22469;48.150;14.004;2023-03-15T08:10:46;11.33;;;4.70;;
3259;SDS011;22469;48.150;14.004;2023-03-15T08:13:13;4.90;;;4.40;;
3259;SDS011;22469;48.150;14.004;2023-03-15T08:15:40;7.27;;;4.70;;
3259;SDS011;22469;48.150;14.004;2023-03-15T08:18:13;13.10;;;9.83;;
3259;SDS011;22469;48.150;14.004;2023-03-15T08:20:40;11.97;;;9.40;;
3259;SDS011;22469;48.150;14.004;2023-03-15T08:23:07;5.70;;;5.00;;
3259;SDS011;22469;48.150;14.004;2023-03-15T08:25:35;5.13;;;4.70;;
3259;SDS011;22469;48.150;14.004;2023-03-15T08:28:06;8.57;;;6.40;;
3259;SDS011;22469;48.150;14.004;2023-03-15T08:30:33;7.97;;;5.10;;
3259;SDS011;22469;48.150;14.004;2023-03-15T08:33:00;13.00;;;9.17;;
3259;SDS011;22469;48.150;14.004;2023-03-15T08:35:29;13.23;;;9.50;;
3259;SDS011;22469;48.150;14.004;2023-03-15T08:38:01;11.33;;;8.37;;
3259;SDS011;22469;48.150;14.004;2023-03-15T08:40:29;12.13;;;7.20;;
3259;SDS011;22469;48.150;14.004;2023-03-15T08:42:56;12.90;;;7.97;;
3259;SDS011;22469;48.150;14.004;2023-03-15T08:45:25;12.03;;;9.93;;
3259;SDS011;22469;48.150;14.004;2023-03-15T08:47:56;6.27;;;5.67;;
3259;SDS011;22469;48.150;14.004;2023-03-15T08:50:24;7.20;;;4.00;;
3259;SDS011;22469;48.150;14.004;2023-03-15T08:52:53;4.27;;;3.53;;
3259;SDS011;22469;48.150;14.004;2023-03-15T08:55:20;3.90;;;3.40;;
3259;SDS011;22469;48.150;14.004;2023-03-15T08:57:48;5.13;;;3.00;;
3259;SDS011;22469;48.150;14.004;2023-03-15T09:00:15;7.70;;;3.33;;
3259;SDS011;22469;48.150;14.004;2023-03-15T09:02:52;3.83;;;2.73;;
3259;SDS011;22469;48.150;14.004;2023-03-15T09:05:21;6.00;;;3.17;;
3259;SDS011;22469;48.150;14.004;2023-03-15T09:07:50;3.30;;;3.00;;
3259;SDS011;22469;48.150;14.004;2023-03-15T09:10:18;7.87;;;3.40;;
3259;SDS011;22469;48.150;14.004;2023-03-15T09:12:48;3.40;;;2.67;;
3259;SDS011;22469;48.150;14.004;2023-03-15T09:15:19;8.47;;;3.97;;
3259;SDS011;22469;48.150;14.004;2023-03-15T09:17:48;9.03;;;4.13;;
3259;SDS011;22469;48.150;14.004;2023-03-15T09:20:17;4.60;;;3.07;;
3259;SDS011;22469;48.150;14.004;2023-03-15T09:22:51;7.97;;;3.00;;
3259;SDS011;22469;48.150;14.004;2023-03-15T09:25:21;3.87;;;3.53;;
3259;SDS011;22469;48.150;14.004;2023-03-15T09:27:49;4.17;;;3.10;;
3259;SDS011;22469;48.150;14.004;2023-03-15T09:30:17;7.17;;;3.53;;
3259;SDS011;22469;48.150;14.004;2023-03-15T09:32:44;8.57;;;3.53;;
3259;SDS011;22469;48.150;14.004;2023-03-15T09:35:13;4.10;;;3.10;;
3259;SDS011;22469;48.150;14.004;2023-03-15T09:37:43;5.57;;;3.97;;
3259;SDS011;22469;48.150;14.004;2023-03-15T09:40:31;5.20;;;2.97;;
3259;SDS011;22469;48.150;14.004;2023-03-15T09:48:43;3.77;;;2.47;;
3259;SDS011;22469;48.150;14.004;2023-03-15T09:51:30;6.63;;;2.90;;
3259;SDS011;22469;48.150;14.004;2023-03-15T09:54:24;5.00;;;3.03;;
3259;SDS011;22469;48.150;14.004;2023-03-15T09:57:02;3.40;;;3.00;;
3259;SDS011;22469;48.150;14.004;2023-03-15T09:59:40;8.80;;;2.83;;
3259;SDS011;22469;48.150;14.004;2023-03-15T10:04:42;6.50;;;2.77;;
3259;SDS011;22469;48.150;14.004;2023-03-15T10:07:13;3.83;;;2.43;;
3259;SDS011;22469;48.150;14.004;2023-03-15T10:09:42;7.60;;;3.30;;
3259;SDS011;22469;48.150;14.004;2023-03-15T10:20:26;4.33;;;3.20;;
3259;SDS011;22469;48.150;14.004;2023-03-15T10:23:02;4.30;;;2.50;;
3259;SDS011;22469;48.150;14.004;2023-03-15T10:25:43;3.07;;;2.80;;
3259;SDS011;22469;48.150;14.004;2023-03-15T10:28:28;3.63;;;2.63;;
3259;SDS011;22469;48.150;14.004;2023-03-15T10:31:10;6.97;;;3.50;;
3259;SDS011;22469;48.150;14.004;2023-03-15T10:33:54;4.30;;;2.20;;
3259;SDS011;22469;48.150;14.004;2023-03-15T10:36:23;3.47;;;3.17;;
3259;SDS011;22469;48.150;14.004;2023-03-15T10:38:51;3.70;;;2.80;;
3259;SDS011;22469;48.150;14.004;2023-03-15T10:41:29;11.73;;;2.77;;
3259;SDS011;22469;48.150;14.004;2023-03-15T10:44:25;6.73;;;2.67;;
3259;SDS011;22469;48.150;14.004;2023-03-15T10:47:00;6.67;;;2.47;;
3259;SDS011;22469;48.150;14.004;2023-03-15T10:49:48;6.50;;;3.13;;
3259;SDS011;22469;48.150;14.004;2023-03-15T10:52:49;3.90;;;3.60;;
3259;SDS011;22469;48.150;14.004;2023-03-15T10:55:13;3.80;;;3.33;;
3259;SDS011;22469;48.150;14.004;2023-03-15T10:57:54;3.80;;;3.50;;
3259;SDS011;22469;48.150;14.004;2023-03-15T11:00:31;6.07;;;4.70;;
3259;SDS011;22469;48.150;14.004;2023-03-15T11:03:18;12.07;;;5.63;;
3259;SDS011;22469;48.150;14.004;2023-03-15T11:05:49;4.23;;;3.83;;
3259;SDS011;22469;48.150;14.004;2023-03-15T11:08:35;8.67;;;3.00;;
3259;SDS011;22469;48.150;14.004;2023-03-15T11:11:07;2.93;;;2.70;;
3259;SDS011;22469;48.150;14.004;2023-03-15T11:13:36;3.47;;;2.67;;
3259;SDS011;22469;48.150;14.004;2023-03-15T11:21:22;5.80;;;5.23;;
3259;SDS011;22469;48.150;14.004;2023-03-15T11:23:52;3.93;;;3.43;;
3259;SDS011;22469;48.150;14.004;2023-03-15T11:26:21;6.97;;;4.03;;
3259;SDS011;22469;48.150;14.004;2023-03-15T11:29:06;5.43;;;3.77;;
3259;SDS011;22469;48.150;14.004;2023-03-15T11:31:47;3.80;;;3.60;;
3259;SDS011;22469;48.150;14.004;2023-03-15T11:36:55;6.10;;;3.70;;
3259;SDS011;22469;48.150;14.004;2023-03-15T11:42:44;3.30;;;3.00;;
3259;SDS011;22469;48.150;14.004;2023-03-15T11:50:41;3.73;;;2.93;;
3259;SDS011;22469;48.150;14.004;2023-03-15T11:53:14;5.00;;;3.90;;
3259;SDS011;22469;48.150;14.004;2023-03-15T11:55:47;5.43;;;3.90;;
3259;SDS011;22469;48.150;14.004;2023-03-15T11:58:26;2.80;;;2.60;;
3259;SDS011;22469;48.150;14.004;2023-03-15T12:01:01;2.97;;;2.20;;
3259;SDS011;22469;48.150;14.004;2023-03-15T12:03:38;2.43;;;2.33;;
3259;SDS011;22469;48.150;14.004;2023-03-15T12:06:09;2.30;;;2.20;;
3259;SDS011;22469;48.150;14.004;2023-03-15T12:08:52;1.77;;;1.67;;
3259;SDS011;22469;48.150;14.004;2023-03-15T12:16:28;2.23;;;2.00;;
3259;SDS011;22469;48.150;14.004;2023-03-15T12:19:00;2.23;;;2.00;;
3259;SDS011;22469;48.150;14.004;2023-03-15T12:21:39;3.13;;;2.30;;
3259;SDS011;22469;48.150;14.004;2023-03-15T12:24:19;5.23;;;2.33;;
3259;SDS011;22469;48.150;14.004;2023-03-15T12:27:01;1.90;;;1.80;;
3259;SDS011;22469;48.150;14.004;2023-03-15T12:29:32;4.33;;;1.97;;
3259;SDS011;22469;48.150;14.004;2023-03-15T12:37:37;4.47;;;2.50;;
3259;SDS011;22469;48.150;14.004;2023-03-15T12:55:50;3.63;;;3.13;;
3259;SDS011;22469;48.150;14.004;2023-03-15T12:58:30;10.90;;;3.87;;
3259;SDS011;22469;48.150;14.004;2023-03-15T13:01:03;4.20;;;3.33;;
3259;SDS011;22469;48.150;14.004;2023-03-15T13:03:33;5.00;;;3.17;;
3259;SDS011;22469;48.150;14.004;2023-03-15T13:12:11;4.17;;;3.47;;
3259;SDS011;22469;48.150;14.004;2023-03-15T13:15:20;4.23;;;3.83;;
3259;SDS011;22469;48.150;14.004;2023-03-15T13:18:09;3.97;;;3.40;;
3259;SDS011;22469;48.150;14.004;2023-03-15T13:23:38;4.37;;;3.80;;
3259;SDS011;22469;48.150;14.004;2023-03-15T13:26:13;4.10;;;3.23;;
3259;SDS011;22469;48.150;14.004;2023-03-15T13:28:59;3.60;;;3.30;;
3259;SDS011;22469;48.150;14.004;2023-03-15T13:31:40;7.53;;;4.93;;
3259;SDS011;22469;48.150;14.004;2023-03-15T13:36:52;4.13;;;3.73;;
3259;SDS011;22469;48.150;14.004;2023-03-15T13:39:23;5.10;;;3.80;;
3259;SDS011;22469;48.150;14.004;2023-03-15T13:41:57;4.37;;;3.97;;
3259;SDS011;22469;48.150;14.004;2023-03-15T13:44:30;4.83;;;3.87;;
3259;SDS011;22469;48.150;14.004;2023-03-15T13:46:59;3.27;;;3.10;;
3259;SDS011;22469;48.150;14.004;2023-03-15T13:49:30;4.87;;;3.33;;
3259;SDS011;22469;48.150;14.004;2023-03-15T13:52:00;3.53;;;3.23;;
3259;SDS011;22469;48.150;14.004;2023-03-15T13:54:37;3.90;;;3.60;;
3259;SDS011;22469;48.150;14.004;2023-03-15T14:02:52;5.33;;;2.97;;
3259;SDS011;22469;48.150;14.004;2023-03-15T14:05:28;3.53;;;2.97;;
3259;SDS011;22469;48.150;14.004;2023-03-15T14:08:01;5.40;;;4.90;;
3259;SDS011;22469;48.150;14.004;2023-03-15T14:13:19;2.77;;;2.50;;
3259;SDS011;22469;48.150;14.004;2023-03-15T14:15:59;3.40;;;3.10;;
3259;SDS011;22469;48.150;14.004;2023-03-15T14:18:39;2.80;;;2.60;;
3259;SDS011;22469;48.150;14.004;2023-03-15T14:21:14;4.60;;;3.23;;
3259;SDS011;22469;48.150;14.004;2023-03-15T14:23:46;2.40;;;2.20;;
3259;SDS011;22469;48.150;14.004;2023-03-15T14:26:18;2.33;;;2.23;;
3259;SDS011;22469;48.150;14.004;2023-03-15T14:29:32;2.33;;;2.13;;
3259;SDS011;22469;48.150;14.004;2023-03-15T14:31:45;2.50;;;2.27;;
3259;SDS011;22469;48.150;14.004;2023-03-15T14:42:47;3.13;;;2.23;;
3259;SDS011;22469;48.150;14.004;2023-03-15T14:45:16;2.50;;;2.30;;
3259;SDS011;22469;48.150;14.004;2023-03-15T14:47:45;3.33;;;3.10;;
3259;SDS011;22469;48.150;14.004;2023-03-15T14:50:23;5.73;;;2.43;;
3259;SDS011;22469;48.150;14.004;2023-03-15T14:52:54;3.67;;;2.10;;
3259;SDS011;22469;48.150;14.004;2023-03-15T14:55:29;3.00;;;2.30;;
3259;SDS011;22469;48.150;14.004;2023-03-15T14:58:03;5.33;;;3.20;;
3259;SDS011;22469;48.150;14.004;2023-03-15T15:00:41;2.80;;;2.17;;
3259;SDS011;22469;48.150;14.004;2023-03-15T15:03:16;2.83;;;2.63;;
3259;SDS011;22469;48.150;14.004;2023-03-15T15:05:51;8.80;;;7.27;;
3259;SDS011;22469;48.150;14.004;2023-03-15T15:08:18;3.87;;;3.60;;
3259;SDS011;22469;48.150;14.004;2023-03-15T15:10:50;2.80;;;2.67;;
3259;SDS011;22469;48.150;14.004;2023-03-15T15:13:22;2.50;;;2.23;;
3259;SDS011;22469;48.150;14.004;2023-03-15T15:15:54;2.30;;;2.20;;
3259;SDS011;22469;48.150;14.004;2023-03-15T15:18:23;4.87;;;3.00;;
3259;SDS011;22469;48.150;14.004;2023-03-15T15:20:57;5.33;;;2.73;;
3259;SDS011;22469;48.150;14.004;2023-03-15T15:23:34;4.37;;;3.40;;
3259;SDS011;22469;48.150;14.004;2023-03-15T15:26:23;3.10;;;2.83;;
3259;SDS011;22469;48.150;14.004;2023-03-15T15:28:53;2.17;;;2.07;;
3259;SDS011;22469;48.150;14.004;2023-03-15T15:31:21;4.20;;;2.50;;
3259;SDS011;22469;48.150;14.004;2023-03-15T15:33:51;3.13;;;2.73;;
3259;SDS011;22469;48.150;14.004;2023-03-15T15:38:51;4.07;;;2.53;;
3259;SDS011;22469;48.150;14.004;2023-03-15T15:41:21;3.03;;;2.83;;
3259;SDS011;22469;48.150;14.004;2023-03-15T15:43:51;4.20;;;2.97;;
3259;SDS011;22469;48.150;14.004;2023-03-15T15:46:19;4.70;;;3.80;;
3259;SDS011;22469;48.150;14.004;2023-03-15T15:48:46;4.20;;;3.57;;
3259;SDS011;22469;48.150;14.004;2023-03-15T15:53:58;5.30;;;3.00;;
3259;SDS011;22469;48.150;14.004;2023-03-15T15:56:34;3.90;;;3.60;;
3259;SDS011;22469;48.150;14.004;2023-03-15T15:59:11;3.80;;;3.50;;
3259;SDS011;22469;48.150;14.004;2023-03-15T16:01:41;3.83;;;3.50;;
3259;SDS011;22469;48.150;14.004;2023-03-15T16:04:25;7.23;;;4.10;;
3259;SDS011;22469;48.150;14.004;2023-03-15T16:06:54;4.83;;;3.10;;
3259;SDS011;22469;48.150;14.004;2023-03-15T16:09:25;7.53;;;4.33;;
3259;SDS011;22469;48.150;14.004;2023-03-15T16:11:55;2.90;;;2.67;;
3259;SDS011;22469;48.150;14.004;2023-03-15T16:14:23;2.73;;;2.40;;
3259;SDS011;22469;48.150;14.004;2023-03-15T16:16:50;6.90;;;3.40;;
3259;SDS011;22469;48.150;14.004;2023-03-15T16:19:18;5.53;;;3.50;;
3259;SDS011;22469;48.150;14.004;2023-03-15T16:21:45;6.50;;;3.90;;
3259;SDS011;22469;48.150;14.004;2023-03-15T16:26:45;4.47;;;2.70;;
3259;SDS011;22469;48.150;14.004;2023-03-15T16:29:18;3.00;;;2.80;;
3259;SDS011;22469;48.150;14.004;2023-03-15T16:31:49;3.33;;;3.03;;
3259;SDS011;22469;48.150;14.004;2023-03-15T16:34:17;3.33;;;3.10;;
3259;SDS011;22469;48.150;14.004;2023-03-15T16:36:45;3.43;;;3.23;;
3259;SDS011;22469;48.150;14.004;2023-03-15T16:39:15;3.90;;;3.00;;
3259;SDS011;22469;48.150;14.004;2023-03-15T16:41:43;4.07;;;3.33;;
3259;SDS011;22469;48.150;14.004;2023-03-15T16:44:11;2.87;;;2.53;;
3259;SDS011;22469;48.150;14.004;2023-03-15T16:46:45;7.30;;;3.20;;
3259;SDS011;22469;48.150;14.004;2023-03-15T16:49:13;3.70;;;3.50;;
3259;SDS011;22469;48.150;14.004;2023-03-15T16:51:42;3.67;;;3.33;;